createdAt,value
2023-01-12T00:02:32.966Z,51.30
2023-01-12T00:05:34.214Z,51.10
2023-01-12T00:08:35.486Z,51.60
2023-01-12T00:11:37.327Z,51.20
2023-01-12T00:14:39.368Z,51.30
2023-01-12T00:17:40.576Z,51.40
2023-01-12T00:20:46.473Z,51.10
2023-01-12T00:23:47.769Z,51.20
2023-01-12T00:26:49.227Z,51.40
2023-01-12T00:29:51.103Z,51.30
2023-01-12T00:32:52.350Z,51.30
2023-01-12T00:35:53.822Z,51.30
2023-01-12T00:38:55.112Z,51.20
2023-01-12T00:42:09.445Z,51.30
2023-01-12T00:45:26.268Z,50.10
2023-01-12T00:48:27.531Z,51.20
2023-01-12T00:51:28.775Z,51.50
2023-01-12T00:54:30.128Z,51.40
2023-01-12T00:57:31.393Z,51.20
2023-01-12T01:00:33.508Z,51.40
2023-01-12T01:03:35.021Z,51.20
2023-01-12T01:06:36.863Z,51.10
2023-01-12T01:09:38.173Z,51.70
2023-01-12T01:12:39.503Z,51.50
2023-01-12T01:15:41.302Z,51.50
2023-01-12T01:18:42.600Z,51.20
2023-01-12T01:21:43.827Z,51.40
2023-01-12T01:24:45.165Z,51.40
2023-01-12T01:27:46.961Z,51.30
2023-01-12T01:30:48.860Z,50.50
2023-01-12T01:33:50.815Z,51.40
2023-01-12T01:36:52.140Z,51.60
2023-01-12T01:39:54.358Z,51.80
2023-01-12T01:42:55.661Z,51.70
2023-01-12T01:45:59.471Z,51.60
2023-01-12T01:49:05.155Z,51.50
2023-01-12T01:52:08.778Z,51.60
2023-01-12T01:55:11.931Z,51.60
2023-01-12T01:58:15.207Z,51.40
2023-01-12T02:01:17.185Z,51.60
2023-01-12T02:04:18.528Z,51.90
2023-01-12T02:07:19.863Z,51.80
2023-01-12T02:10:21.437Z,51.50
2023-01-12T02:13:39.076Z,51.70
2023-01-12T02:16:47.819Z,51.50
2023-01-12T02:20:03.907Z,51.80
2023-01-12T02:23:21.945Z,51.50
2023-01-12T02:26:37.811Z,51.60
2023-01-12T02:29:53.933Z,51.80
2023-01-12T02:33:00.944Z,51.60
2023-01-12T02:36:06.886Z,51.80
2023-01-12T02:39:11.561Z,51.80
2023-01-12T02:42:29.351Z,51.70
2023-01-12T02:45:35.156Z,51.80
2023-01-12T02:48:39.862Z,51.70
2023-01-12T02:51:44.823Z,51.90
2023-01-12T02:54:47.260Z,52.10
2023-01-12T02:57:48.641Z,51.80
2023-01-12T03:00:53.587Z,52.00
2023-01-12T03:03:56.452Z,51.80
2023-01-12T03:07:09.717Z,52.00
2023-01-12T03:10:17.213Z,51.80
2023-01-12T03:13:19.689Z,51.70
2023-01-12T03:16:22.369Z,51.60
2023-01-12T03:19:27.553Z,52.00
2023-01-12T03:22:30.081Z,51.90
2023-01-12T03:25:32.329Z,51.80
2023-01-12T03:28:35.642Z,51.80
2023-01-12T03:31:37.044Z,51.60
2023-01-12T03:34:39.171Z,51.90
2023-01-12T03:37:43.606Z,52.10
2023-01-12T03:40:46.090Z,51.80
2023-01-12T03:43:49.501Z,51.90
2023-01-12T03:46:53.860Z,51.80
2023-01-12T03:49:57.560Z,52.20
2023-01-12T03:53:01.395Z,52.10
2023-01-12T03:56:05.266Z,51.90
2023-01-12T03:59:08.691Z,52.00
2023-01-12T04:02:09.952Z,51.90
2023-01-12T04:05:12.872Z,52.20
2023-01-12T04:08:15.113Z,52.20
2023-01-12T04:11:29.478Z,52.10
2023-01-12T04:14:30.812Z,52.00
2023-01-12T04:17:32.631Z,52.20
2023-01-12T04:20:34.458Z,52.20
2023-01-12T04:23:35.758Z,52.30
2023-01-12T04:26:37.008Z,52.40
2023-01-12T04:29:38.227Z,52.30
2023-01-12T04:32:39.448Z,52.30
2023-01-12T04:35:41.344Z,52.40
2023-01-12T04:38:42.582Z,52.30
2023-01-12T04:41:43.870Z,52.20
2023-01-12T04:44:45.117Z,52.10
2023-01-12T04:47:46.539Z,52.20
2023-01-12T04:50:49.612Z,52.30
2023-01-12T04:53:50.977Z,52.10
2023-01-12T04:56:52.220Z,52.10
2023-01-12T04:59:53.459Z,52.10
2023-01-12T05:02:57.311Z,52.00
2023-01-12T05:06:00.793Z,52.10
2023-01-12T05:09:19.793Z,51.90
2023-01-12T05:12:21.277Z,51.90
2023-01-12T05:15:22.867Z,52.10
2023-01-12T05:18:24.172Z,51.80
2023-01-12T05:21:25.983Z,51.90
2023-01-12T05:24:27.209Z,52.00
2023-01-12T05:27:28.471Z,52.00
2023-01-12T05:30:31.937Z,52.10
2023-01-12T05:33:33.683Z,52.10
2023-01-12T05:36:35.655Z,51.90
2023-01-12T05:39:36.862Z,52.00
2023-01-12T05:42:49.522Z,52.10
2023-01-12T05:45:50.784Z,52.10
2023-01-12T05:48:53.178Z,52.00
2023-01-12T05:51:54.976Z,51.90
2023-01-12T05:54:56.208Z,52.00
2023-01-12T05:57:58.413Z,52.00
2023-01-12T06:00:59.722Z,51.90
2023-01-12T06:04:01.110Z,51.90
2023-01-12T06:07:03.067Z,51.80
2023-01-12T06:10:05.082Z,52.30
2023-01-12T06:13:19.522Z,52.10
2023-01-12T06:16:20.770Z,52.20
2023-01-12T06:19:22.170Z,52.00
2023-01-12T06:22:24.063Z,52.30
2023-01-12T06:25:25.308Z,52.10
2023-01-12T06:28:26.583Z,52.00
2023-01-12T06:31:27.915Z,52.00
2023-01-12T06:34:33.919Z,52.50
2023-01-12T06:37:35.890Z,51.80
2023-01-12T06:40:37.120Z,51.90
2023-01-12T06:43:38.433Z,52.00
2023-01-12T06:46:39.790Z,52.20
2023-01-12T06:49:41.162Z,51.90
2023-01-12T06:52:42.961Z,52.10
2023-01-12T06:55:47.268Z,52.10
2023-01-12T06:58:48.644Z,52.20
2023-01-12T07:01:50.033Z,52.20
2023-01-12T07:04:51.397Z,52.30
2023-01-12T07:07:59.245Z,52.30
2023-01-12T07:11:00.871Z,52.10
2023-01-12T07:14:02.134Z,52.00
2023-01-12T07:17:03.461Z,52.40
2023-01-12T07:20:05.332Z,52.10
2023-01-12T07:23:07.146Z,52.30
2023-01-12T07:26:08.623Z,52.10
2023-01-12T07:29:10.480Z,52.30
2023-01-12T07:32:11.969Z,51.90
2023-01-12T07:35:13.340Z,52.20
2023-01-12T07:38:15.392Z,51.90
2023-01-12T07:41:29.566Z,52.10
2023-01-12T07:44:41.968Z,51.80
2023-01-12T07:47:43.247Z,52.40
2023-01-12T07:50:44.892Z,52.10
2023-01-12T07:53:47.033Z,51.80
2023-01-12T07:56:48.395Z,51.80
2023-01-12T07:59:49.628Z,52.20
2023-01-12T08:02:51.367Z,52.00
2023-01-12T08:05:53.447Z,52.10
2023-01-12T08:08:55.543Z,51.90
2023-01-12T08:11:56.780Z,52.40
2023-01-12T08:14:59.842Z,51.70
2023-01-12T08:18:04.456Z,50.60
2023-01-12T08:21:09.234Z,51.80
2023-01-12T08:24:12.563Z,51.90
2023-01-12T08:27:15.159Z,52.00
2023-01-12T08:30:19.229Z,52.10
2023-01-12T08:33:22.019Z,52.00
2023-01-12T08:36:24.592Z,52.00
2023-01-12T08:39:28.822Z,51.90
2023-01-12T08:42:31.811Z,52.10
2023-01-12T08:45:33.307Z,51.90
2023-01-12T08:48:35.136Z,51.90
2023-01-12T08:51:38.761Z,51.70
2023-01-12T08:54:40.748Z,51.70
2023-01-12T08:57:42.038Z,51.50
2023-01-12T09:00:43.536Z,51.50
2023-01-12T09:03:45.048Z,51.20
2023-01-12T09:06:46.403Z,51.50
2023-01-12T09:09:48.327Z,51.30
2023-01-12T09:12:49.608Z,51.30
2023-01-12T09:16:10.886Z,51.40
2023-01-12T09:19:12.190Z,51.50
2023-01-12T09:22:13.541Z,51.20
2023-01-12T09:25:15.538Z,51.40
2023-01-12T09:28:16.812Z,51.30
2023-01-12T09:31:19.261Z,51.40
2023-01-12T09:34:21.428Z,51.00
2023-01-12T09:37:22.659Z,51.30
2023-01-12T09:40:24.638Z,51.10
2023-01-12T09:43:39.567Z,51.60
2023-01-12T09:46:55.607Z,50.80
2023-01-12T09:50:08.677Z,51.20
2023-01-12T09:53:12.362Z,51.10
2023-01-12T09:56:17.789Z,51.00
2023-01-12T09:59:25.112Z,50.80
2023-01-12T10:02:26.507Z,51.20
2023-01-12T10:05:39.747Z,51.10
2023-01-12T10:08:42.059Z,51.50
2023-01-12T10:11:52.303Z,51.20
2023-01-12T10:15:01.759Z,51.10
2023-01-12T10:18:06.499Z,51.10
2023-01-12T10:21:09.407Z,51.00
2023-01-12T10:24:11.362Z,51.10
2023-01-12T10:27:14.245Z,51.20
2023-01-12T10:30:16.752Z,51.40
2023-01-12T10:33:20.127Z,51.40
2023-01-12T10:36:25.222Z,51.10
2023-01-12T10:39:29.429Z,51.40
2023-01-12T10:42:45.959Z,51.20
2023-01-12T10:46:02.307Z,51.50
2023-01-12T10:49:18.500Z,51.20
2023-01-12T10:52:30.986Z,51.40
2023-01-12T10:55:34.241Z,51.30
2023-01-12T10:58:36.146Z,51.20
2023-01-12T11:01:45.344Z,51.40
2023-01-12T11:04:47.528Z,51.50
2023-01-12T11:07:48.972Z,51.20
2023-01-12T11:10:50.309Z,51.50
2023-01-12T11:13:54.285Z,51.20
2023-01-12T11:17:00.289Z,51.40
2023-01-12T11:20:04.211Z,51.30
2023-01-12T11:23:16.015Z,50.80
2023-01-12T11:26:18.585Z,51.10
2023-01-12T11:29:26.891Z,51.40
2023-01-12T11:32:33.235Z,51.20
2023-01-12T11:35:37.121Z,51.20
2023-01-12T11:38:40.775Z,51.20
2023-01-12T11:42:03.243Z,51.40
2023-01-12T11:45:08.524Z,51.40
2023-01-12T11:48:15.663Z,51.50
2023-01-12T11:51:16.929Z,51.10
2023-01-12T11:54:18.852Z,51.60
2023-01-12T11:57:29.436Z,51.10
2023-01-12T12:00:36.728Z,51.40
2023-01-12T12:03:46.490Z,51.60
2023-01-12T12:06:56.017Z,51.30
2023-01-12T12:10:02.890Z,51.10
2023-01-12T12:13:11.710Z,51.20
2023-01-12T12:16:22.110Z,51.00
2023-01-12T12:19:29.701Z,51.30
2023-01-12T12:22:36.404Z,50.90
2023-01-12T12:25:41.821Z,51.40
2023-01-12T12:28:53.118Z,51.10
2023-01-12T12:32:01.235Z,51.20
2023-01-12T12:35:06.861Z,51.00
2023-01-12T12:38:15.371Z,51.00
2023-01-12T12:41:38.912Z,50.90
2023-01-12T12:44:59.562Z,51.10
2023-01-12T12:48:05.381Z,50.80
2023-01-12T12:51:08.092Z,50.90
2023-01-12T12:54:12.218Z,50.70
2023-01-12T12:57:13.776Z,50.70
2023-01-12T13:00:28.705Z,50.80
2023-01-12T13:03:39.916Z,51.00
2023-01-12T13:06:45.423Z,50.60
2023-01-12T13:09:47.565Z,50.90
2023-01-12T13:12:56.706Z,51.00
2023-01-12T13:16:09.972Z,51.10
2023-01-12T13:19:13.251Z,50.90
2023-01-12T13:22:26.321Z,50.80
2023-01-12T13:25:43.465Z,50.70
2023-01-12T13:28:44.930Z,48.70
2023-01-12T13:31:47.890Z,50.60
2023-01-12T13:34:50.131Z,48.60
2023-01-12T13:37:54.443Z,49.20
2023-01-12T13:41:01.310Z,50.50
2023-01-12T13:44:05.126Z,50.30
2023-01-12T13:47:08.261Z,48.40
2023-01-12T13:50:15.209Z,50.20
2023-01-12T13:53:22.057Z,49.80
2023-01-12T13:56:23.355Z,50.30
2023-01-12T13:59:26.105Z,50.30
2023-01-12T14:02:29.630Z,50.20
2023-01-12T14:05:38.123Z,50.20
2023-01-12T14:08:51.738Z,50.10
2023-01-12T14:12:03.503Z,50.30
2023-01-12T14:15:29.582Z,50.00
2023-01-12T14:18:41.557Z,50.10
2023-01-12T14:21:53.988Z,50.00
2023-01-12T14:25:12.576Z,50.20
2023-01-12T14:28:15.588Z,50.20
2023-01-12T14:31:21.440Z,50.50
2023-01-12T14:34:27.001Z,50.20
2023-01-12T14:37:29.589Z,50.30
2023-01-12T14:40:32.339Z,50.10
2023-01-12T14:43:49.551Z,50.60
2023-01-12T14:46:52.393Z,50.40
2023-01-12T14:49:53.914Z,50.60
2023-01-12T14:52:55.165Z,50.30
2023-01-12T14:56:05.570Z,50.80
2023-01-12T14:59:08.852Z,50.60
2023-01-12T15:02:19.371Z,50.50
2023-01-12T15:05:22.173Z,50.50
2023-01-12T15:08:26.171Z,50.60
2023-01-12T15:11:29.092Z,50.50
2023-01-12T15:14:30.593Z,50.70
2023-01-12T15:17:46.540Z,50.90
2023-01-12T15:20:59.572Z,50.80
2023-01-12T15:24:16.018Z,50.60
2023-01-12T15:27:19.690Z,50.70
2023-01-12T15:30:20.967Z,50.80
2023-01-12T15:33:22.213Z,50.80
2023-01-12T15:36:24.127Z,50.50
2023-01-12T15:39:25.399Z,50.40
2023-01-12T15:42:27.196Z,50.30
2023-01-12T15:45:31.578Z,50.40
2023-01-12T15:48:32.843Z,50.30
2023-01-12T15:51:34.286Z,50.40
2023-01-12T15:54:35.745Z,50.00
2023-01-12T15:57:37.687Z,50.30
2023-01-12T16:00:39.547Z,50.10
2023-01-12T16:04:21.244Z,50.10
2023-01-12T16:07:02.101Z,50.00
2023-01-12T16:10:03.640Z,50.30
2023-01-12T16:13:08.634Z,50.00
2023-01-12T16:16:13.669Z,50.20
2023-01-12T16:19:20.472Z,50.10
2023-01-12T16:22:22.434Z,50.20
2023-01-12T16:25:23.831Z,50.00
2023-01-12T16:28:26.112Z,50.00
2023-01-12T16:31:27.447Z,50.10
2023-01-12T16:34:28.832Z,50.10
2023-01-12T16:37:32.473Z,49.70
2023-01-12T16:40:34.291Z,50.20
2023-01-12T16:43:37.442Z,50.00
2023-01-12T16:46:38.772Z,50.30
2023-01-12T16:49:40.209Z,50.20
2023-01-12T16:52:41.472Z,50.40
2023-01-12T16:55:42.786Z,50.40
2023-01-12T16:58:47.243Z,50.60
2023-01-12T17:01:50.916Z,50.50
2023-01-12T17:04:52.712Z,50.50
2023-01-12T17:07:55.046Z,50.30
2023-01-12T17:10:56.522Z,50.80
2023-01-12T17:13:58.713Z,50.40
2023-01-12T17:17:01.664Z,50.70
2023-01-12T17:20:03.440Z,50.50
2023-01-12T17:23:04.956Z,50.70
2023-01-12T17:26:08.642Z,50.60
2023-01-12T17:29:10.829Z,50.80
2023-01-12T17:32:12.165Z,50.90
2023-01-12T17:35:13.783Z,51.10
2023-01-12T17:38:15.130Z,50.90
2023-01-12T17:41:31.192Z,51.10
2023-01-12T17:44:33.039Z,50.50
2023-01-12T17:47:34.294Z,51.10
2023-01-12T17:50:37.993Z,51.00
2023-01-12T17:53:39.354Z,51.00
2023-01-12T17:56:41.152Z,50.80
2023-01-12T17:59:43.841Z,51.10
2023-01-12T18:02:45.133Z,51.10
2023-01-12T18:05:50.053Z,51.20
2023-01-12T18:08:56.240Z,51.00
2023-01-12T18:11:59.380Z,51.30
2023-01-12T18:15:01.200Z,51.20
2023-01-12T18:18:02.450Z,51.40
2023-01-12T18:21:04.207Z,51.30
2023-01-12T18:24:06.081Z,51.40
2023-01-12T18:27:07.520Z,51.30
2023-01-12T18:30:10.065Z,51.50
2023-01-12T18:33:11.306Z,51.30
2023-01-12T18:36:18.859Z,51.70
2023-01-12T18:39:20.240Z,51.40
2023-01-12T18:42:36.207Z,51.90
2023-01-12T18:45:38.061Z,51.20
2023-01-12T18:48:39.488Z,51.80
2023-01-12T18:51:55.495Z,51.70
2023-01-12T18:54:58.031Z,52.00
2023-01-12T18:57:59.342Z,51.80
2023-01-12T19:01:02.483Z,52.20
2023-01-12T19:04:05.509Z,51.90
2023-01-12T19:07:06.851Z,52.00
2023-01-12T19:10:08.808Z,51.80
2023-01-12T19:13:25.241Z,51.90
2023-01-12T19:16:39.597Z,50.30
2023-01-12T19:19:40.854Z,52.40
2023-01-12T19:22:57.191Z,52.00
2023-01-12T19:26:14.681Z,52.30
2023-01-12T19:29:16.138Z,52.10
2023-01-12T19:32:18.172Z,52.30
2023-01-12T19:35:19.481Z,52.10
2023-01-12T19:38:20.963Z,52.30
2023-01-12T19:41:37.052Z,52.00
2023-01-12T19:44:38.322Z,52.10
2023-01-12T19:47:40.167Z,52.20
2023-01-12T19:50:43.106Z,52.40
2023-01-12T19:53:44.373Z,52.00
2023-01-12T19:56:45.868Z,52.40
2023-01-12T19:59:47.644Z,52.10
2023-01-12T20:02:49.659Z,52.40
2023-01-12T20:05:51.631Z,52.10
2023-01-12T20:08:52.855Z,52.50
2023-01-12T20:11:54.552Z,52.40
2023-01-12T20:14:56.033Z,51.50
2023-01-12T20:17:59.377Z,52.40
2023-01-12T20:21:02.611Z,52.50
2023-01-12T20:24:04.032Z,52.20
2023-01-12T20:27:05.261Z,52.60
2023-01-12T20:30:07.679Z,53.10
2023-01-12T20:33:09.682Z,52.70
2023-01-12T20:36:11.477Z,52.70
2023-01-12T20:39:13.249Z,52.30
2023-01-12T20:42:14.704Z,52.40
2023-01-12T20:45:17.414Z,52.70
2023-01-12T20:48:19.324Z,52.50
2023-01-12T20:51:20.600Z,52.00
2023-01-12T20:54:21.833Z,52.50
2023-01-12T20:57:23.217Z,53.00
2023-01-12T21:00:25.452Z,52.60
2023-01-12T21:03:28.258Z,52.60
2023-01-12T21:06:30.674Z,52.70
2023-01-12T21:09:32.060Z,52.90
2023-01-12T21:12:33.487Z,52.50
2023-01-12T21:15:34.729Z,52.80
2023-01-12T21:18:36.575Z,52.60
2023-01-12T21:21:37.857Z,52.80
2023-01-12T21:24:39.232Z,53.10
2023-01-12T21:27:40.453Z,52.70
2023-01-12T21:30:41.746Z,52.70
2023-01-12T21:33:44.203Z,52.80
2023-01-12T21:36:45.680Z,53.00
2023-01-12T21:39:46.957Z,52.90
2023-01-12T21:42:59.767Z,52.70
2023-01-12T21:46:03.387Z,52.60
2023-01-12T21:49:07.361Z,52.70
2023-01-12T21:52:09.010Z,52.70
2023-01-12T21:55:12.337Z,52.90
2023-01-12T21:58:13.626Z,53.10
2023-01-12T22:01:14.975Z,52.50
2023-01-12T22:04:17.005Z,53.10
2023-01-12T22:07:18.237Z,52.70
2023-01-12T22:10:19.540Z,53.20
2023-01-12T22:13:20.871Z,53.00
2023-01-12T22:16:22.385Z,53.20
2023-01-12T22:19:24.276Z,53.10
2023-01-12T22:22:25.526Z,53.00
2023-01-12T22:25:26.829Z,52.80
2023-01-12T22:28:28.260Z,53.40
2023-01-12T22:31:29.642Z,53.30
2023-01-12T22:34:31.611Z,53.10
2023-01-12T22:37:34.917Z,53.00
2023-01-12T22:40:36.169Z,53.20
2023-01-12T22:43:39.878Z,53.20
2023-01-12T22:46:41.121Z,52.80
2023-01-12T22:49:44.533Z,53.10
2023-01-12T22:52:49.279Z,53.40
2023-01-12T22:55:50.558Z,53.20
2023-01-12T22:58:52.750Z,53.20
2023-01-12T23:01:54.059Z,53.10
2023-01-12T23:04:55.978Z,53.70
2023-01-12T23:07:57.467Z,53.30
2023-01-12T23:11:01.743Z,53.60
2023-01-12T23:14:03.314Z,53.10
2023-01-12T23:17:05.143Z,53.40
2023-01-12T23:20:08.201Z,53.20
2023-01-12T23:23:10.090Z,53.10
2023-01-12T23:26:12.266Z,53.20
2023-01-12T23:29:13.754Z,53.50
2023-01-12T23:32:15.003Z,53.50
2023-01-12T23:35:17.035Z,53.40
2023-01-12T23:38:18.402Z,53.30
2023-01-12T23:41:20.574Z,53.40
2023-01-12T23:44:21.947Z,53.50
2023-01-12T23:47:23.697Z,53.40
2023-01-12T23:50:25.552Z,53.30
2023-01-12T23:53:27.402Z,53.80
2023-01-12T23:56:29.226Z,53.40
2023-01-12T23:59:30.648Z,53.40
